Time;durP1;ratioP1;P1;durP2;ratioP2;P2;SDS_P1;SDS_P2;PMS_P1;PMS_P2;Temp;Humidity;BMP_temperature;BMP_pressure;BME280_temperature;BME280_humidity;BME280_pressure;Samples;Min_cycle;Max_cycle;Signal;HPM_P1;HPM_P2
2021/01/06 00:00:08;;;;;;;5.38;3.10;;;;;;;18.38;72.32;101861.44;5032446;28;20111;-76
2021/01/06 00:02:33;;;;;;;10.90;3.30;;;;;;;18.39;72.45;101860.50;5014057;28;20053;-76
2021/01/06 00:04:58;;;;;;;4.05;3.30;;;;;;;18.39;72.44;101865.84;5032179;28;20052;-76
2021/01/06 00:07:24;;;;;;;4.38;3.30;;;;;;;18.36;72.44;101884.59;5032442;28;20490;-76
2021/01/06 00:09:49;;;;;;;4.25;3.05;;;;;;;18.36;72.54;101879.22;5031439;28;20041;-76
2021/01/06 00:12:18;;;;;;;6.60;3.47;;;;;;;18.35;72.72;101870.31;5014207;28;20069;-77
2021/01/06 00:14:44;;;;;;;5.53;3.20;;;;;;;18.37;72.81;101875.69;5010338;28;21068;-77
2021/01/06 00:17:09;;;;;;;4.63;2.90;;;;;;;18.37;72.71;101876.56;5014691;28;20048;-76
2021/01/06 00:19:34;;;;;;;3.42;2.70;;;;;;;18.38;72.76;101883.66;5013650;28;20525;-75
2021/01/06 00:22:00;;;;;;;3.45;2.70;;;;;;;18.37;72.70;101878.34;5032237;28;20041;-76
2021/01/06 00:24:25;;;;;;;4.95;2.83;;;;;;;18.36;72.60;101880.13;5014039;28;20502;-76
2021/01/06 00:26:51;;;;;;;12.63;2.55;;;;;;;18.36;72.86;101884.59;5032064;28;20425;-76
2021/01/06 00:29:16;;;;;;;3.67;2.38;;;;;;;18.37;72.57;101889.03;5031043;28;20041;-76
2021/01/06 00:31:41;;;;;;;3.60;2.40;;;;;;;18.37;72.57;101889.94;5013862;28;20610;-77
2021/01/06 00:34:06;;;;;;;7.50;2.40;;;;;;;18.37;72.50;101894.41;5030948;28;20386;-77
2021/01/06 00:36:32;;;;;;;4.53;2.92;;;;;;;18.38;72.36;101888.16;5012925;28;20029;-77
2021/01/06 00:38:57;;;;;;;7.10;2.42;;;;;;;18.40;72.11;101889.94;5031259;28;20057;-78
2021/01/06 00:41:22;;;;;;;9.52;2.40;;;;;;;18.41;72.35;101901.50;5030119;28;20037;-77
2021/01/06 00:43:52;;;;;;;8.68;3.03;;;;;;;18.41;72.29;101914.88;5012996;28;20064;-77
2021/01/06 00:46:17;;;;;;;9.38;2.30;;;;;;;18.38;72.78;101909.56;5030942;28;20398;-77
2021/01/06 00:48:42;;;;;;;5.55;2.50;;;;;;;18.39;72.30;101906.84;5030558;28;20099;-76
2021/01/06 00:51:08;;;;;;;5.18;2.50;;;;;;;18.37;72.27;101907.75;5013226;28;20041;-77
2021/01/06 00:53:33;;;;;;;2.92;2.20;;;;;;;18.36;72.64;101905.97;5030915;28;20040;-77
2021/01/06 00:55:58;;;;;;;2.88;2.33;;;;;;;18.36;72.04;101896.16;5013316;28;20037;-77
2021/01/06 00:58:24;;;;;;;3.28;2.05;;;;;;;18.36;72.48;101897.94;5031245;28;20034;-77
2021/01/06 01:00:49;;;;;;;4.32;2.35;;;;;;;18.36;71.95;101900.63;5030467;28;20045;-77
2021/01/06 01:03:15;;;;;;;7.85;2.40;;;;;;;18.36;72.47;101893.50;5030271;28;20522;-77
2021/01/06 01:05:40;;;;;;;2.47;2.00;;;;;;;18.36;71.97;101898.84;5030122;28;20486;-76
2021/01/06 01:08:05;;;;;;;4.53;2.20;;;;;;;18.37;72.11;101895.28;5013240;28;20544;-76
2021/01/06 01:10:31;;;;;;;3.17;2.20;;;;;;;18.38;72.19;101894.38;5029965;28;20444;-76
2021/01/06 01:12:56;;;;;;;2.05;1.70;;;;;;;18.38;71.70;101889.03;5030525;28;20143;-76
2021/01/06 01:15:21;;;;;;;3.92;2.08;;;;;;;18.38;71.86;101874.78;5013387;28;20512;-77
2021/01/06 01:17:47;;;;;;;5.00;2.00;;;;;;;18.37;71.56;101881.03;5013218;28;20045;-77
2021/01/06 01:20:12;;;;;;;3.38;2.05;;;;;;;18.37;71.78;101883.69;5012910;28;20038;-77
2021/01/06 01:22:37;;;;;;;2.58;1.92;;;;;;;18.34;71.90;101887.25;5012614;28;20478;-76
2021/01/06 01:25:03;;;;;;;3.10;1.98;;;;;;;18.33;71.73;101893.47;5013128;28;20405;-76
2021/01/06 01:27:28;;;;;;;2.40;1.90;;;;;;;18.33;71.88;101881.00;5030166;28;20041;-76
2021/01/06 01:29:53;;;;;;;2.75;2.13;;;;;;;18.33;71.68;101886.34;5030562;28;20045;-76
2021/01/06 01:32:19;;;;;;;2.53;2.10;;;;;;;18.31;71.65;101882.78;5030657;28;20042;-76
2021/01/06 01:34:44;;;;;;;3.00;2.20;;;;;;;18.33;71.81;101901.50;5030107;28;20049;-76
2021/01/06 01:37:09;;;;;;;3.15;2.70;;;;;;;18.31;72.15;101893.47;5030711;28;20100;-76
2021/01/06 01:39:35;;;;;;;3.65;2.40;;;;;;;18.30;71.81;101891.72;5011536;28;20030;-76
2021/01/06 01:42:00;;;;;;;9.82;2.25;;;;;;;18.34;72.04;101895.28;5030374;28;20057;-77
2021/01/06 01:44:26;;;;;;;3.90;2.05;;;;;;;18.38;71.62;101898.84;5012100;28;20049;-77
2021/01/06 01:46:51;;;;;;;8.95;1.83;;;;;;;18.40;71.89;101899.72;5013653;28;20736;-77
2021/01/06 01:49:16;;;;;;;2.50;1.80;;;;;;;18.36;71.53;101908.66;5034656;28;20033;-77
2021/01/06 01:51:42;;;;;;;7.65;1.95;;;;;;;18.36;71.48;101903.28;5034355;28;20041;-76
2021/01/06 01:54:07;;;;;;;3.00;2.03;;;;;;;18.36;71.81;101905.97;5017911;28;20060;-78
2021/01/06 01:56:32;;;;;;;6.28;1.92;;;;;;;18.33;71.58;101910.41;5016880;28;20057;-78
2021/01/06 01:58:58;;;;;;;4.07;2.15;;;;;;;18.33;71.44;101917.53;5017555;28;20037;-78
2021/01/06 02:01:23;;;;;;;2.03;1.70;;;;;;;18.33;71.42;101922.88;5017255;28;20095;-78
2021/01/06 02:03:48;;;;;;;3.38;1.98;;;;;;;18.34;71.21;101922.00;5015744;28;20045;-78
2021/01/06 02:06:14;;;;;;;1.83;1.27;;;;;;;18.30;71.76;101917.56;5016880;28;20091;-78
2021/01/06 02:08:39;;;;;;;3.13;1.77;;;;;;;18.29;71.78;101926.44;5017905;28;20080;-80
2021/01/06 02:11:05;;;;;;;4.38;1.77;;;;;;;18.29;71.80;101931.81;5017571;28;20046;-79
2021/01/06 02:13:30;;;;;;;2.75;1.80;;;;;;;18.29;71.74;101929.13;5035600;28;20037;-79
2021/01/06 02:15:56;;;;;;;5.10;1.88;;;;;;;18.31;71.65;101916.66;5035221;28;20092;-80
2021/01/06 02:18:21;;;;;;;10.00;1.90;;;;;;;18.29;71.40;101915.75;5017476;28;20038;-78
2021/01/06 02:20:46;;;;;;;6.57;1.67;;;;;;;18.28;71.21;101930.91;5034382;28;20049;-77
2021/01/06 02:23:12;;;;;;;4.88;1.70;;;;;;;18.29;71.60;101923.78;5036034;28;20505;-77
2021/01/06 02:25:39;;;;;;;2.70;1.65;;;;;;;18.29;71.18;101913.09;5033881;28;20073;-78
2021/01/06 02:28:04;;;;;;;4.68;1.33;;;;;;;18.30;71.00;101917.56;5034281;28;20045;-78
2021/01/06 02:30:30;;;;;;;2.97;1.42;;;;;;;18.30;71.45;101913.09;5017177;28;20398;-75
2021/01/06 02:32:55;;;;;;;3.13;1.65;;;;;;;18.28;71.08;101898.81;5033250;28;20077;-76
2021/01/06 02:35:21;;;;;;;2.35;1.70;;;;;;;18.28;71.41;101904.16;5034175;28;20048;-75
2021/01/06 02:37:46;;;;;;;10.10;1.40;;;;;;;18.30;71.43;101907.75;5016394;28;20034;-76
2021/01/06 02:40:11;;;;;;;4.55;1.58;;;;;;;18.30;71.52;101898.84;5034031;28;20618;-76
2021/01/06 02:42:37;;;;;;;14.82;1.67;;;;;;;18.33;71.05;101897.03;5015575;28;20026;-75
2021/01/06 02:45:02;;;;;;;4.20;1.55;;;;;;;18.31;71.27;101904.16;5033234;28;20048;-76
2021/01/06 02:47:27;;;;;;;6.70;1.30;;;;;;;18.32;71.23;101905.06;5015916;28;20042;-75
2021/01/06 02:49:53;;;;;;;1.55;1.25;;;;;;;18.33;70.47;101904.16;5033409;28;20052;-76
2021/01/06 02:52:18;;;;;;;1.63;1.20;;;;;;;18.29;71.06;101899.72;5033979;28;20041;-76
2021/01/06 02:54:44;;;;;;;1.70;1.58;;;;;;;18.27;70.60;101902.38;5015352;28;20498;-76
2021/01/06 02:57:09;;;;;;;2.20;1.38;;;;;;;18.27;70.96;101905.06;5033099;28;20670;-75
2021/01/06 02:59:35;;;;;;;1.48;1.10;;;;;;;18.29;71.24;101910.41;5032206;28;20133;-76
2021/01/06 03:02:00;;;;;;;3.17;1.40;;;;;;;18.27;71.21;101917.53;5015963;28;20044;-75
2021/01/06 03:04:26;;;;;;;1.48;1.17;;;;;;;18.24;71.06;101923.78;5015780;28;20127;-75
2021/01/06 03:06:51;;;;;;;3.70;1.30;;;;;;;18.26;70.41;101926.44;5031729;28;20555;-76
2021/01/06 03:09:16;;;;;;;5.80;1.25;;;;;;;18.31;70.70;101925.56;5015611;28;20448;-75
2021/01/06 03:11:42;;;;;;;2.13;1.20;;;;;;;18.33;70.47;101921.09;5032870;28;20056;-76
2021/01/06 03:14:07;;;;;;;3.83;1.70;;;;;;;18.40;70.49;101923.78;5033190;28;20116;-75
2021/01/06 03:16:32;;;;;;;7.30;1.20;;;;;;;18.33;70.84;101929.13;5032817;28;20052;-77
2021/01/06 03:18:58;;;;;;;2.35;1.08;;;;;;;18.31;70.83;101924.69;5033371;28;20524;-76
2021/01/06 03:21:23;;;;;;;6.28;1.08;;;;;;;18.29;70.62;101921.09;5015793;28;20588;-77
2021/01/06 03:23:48;;;;;;;2.85;0.88;;;;;;;18.27;70.80;101926.44;5015094;28;20037;-77
2021/01/06 03:26:14;;;;;;;5.28;1.00;;;;;;;18.28;70.42;101930.00;5032435;28;20084;-76
2021/01/06 03:28:39;;;;;;;1.63;1.00;;;;;;;18.24;70.29;101926.44;5015482;28;20057;-77
2021/01/06 03:31:04;;;;;;;2.17;1.00;;;;;;;18.24;70.26;101925.56;5033146;28;20042;-77
2021/01/06 03:33:29;;;;;;;1.63;1.10;;;;;;;18.24;70.18;101928.22;5015141;28;20053;-77
2021/01/06 03:35:55;;;;;;;1.15;1.00;;;;;;;18.26;70.75;101935.34;5032502;28;20172;-78
2021/01/06 03:38:20;;;;;;;2.30;1.20;;;;;;;18.26;70.07;101942.47;5015097;28;20044;-76
2021/01/06 03:40:45;;;;;;;2.13;0.93;;;;;;;18.26;70.53;101947.81;5014711;28;20053;-75
2021/01/06 03:43:11;;;;;;;1.63;0.90;;;;;;;18.24;70.39;101944.28;5015177;28;20449;-75
2021/01/06 03:45:36;;;;;;;2.90;1.10;;;;;;;18.22;70.14;101941.59;5032219;28;20041;-75
2021/01/06 03:48:02;;;;;;;2.38;1.00;;;;;;;18.24;70.32;101947.84;5031992;28;20056;-77
2021/01/06 03:50:27;;;;;;;0.90;0.77;;;;;;;18.22;70.58;101952.28;5014709;28;20064;-75
2021/01/06 03:52:52;;;;;;;0.85;0.70;;;;;;;18.21;70.17;101957.63;5015062;28;20068;-75
2021/01/06 03:55:18;;;;;;;1.25;0.73;;;;;;;18.23;70.47;101950.50;5014508;28;20076;-76
2021/01/06 03:57:43;;;;;;;1.77;0.85;;;;;;;18.21;69.88;101955.84;5031750;28;20049;-76
2021/01/06 04:00:08;;;;;;;0.75;0.70;;;;;;;18.21;69.89;101957.63;5014467;28;20057;-75
2021/01/06 04:02:34;;;;;;;2.45;1.10;;;;;;;18.22;69.77;101954.94;5013939;28;20048;-75
2021/01/06 04:05:01;;;;;;;3.92;0.93;;;;;;;18.21;70.36;101957.63;5014762;28;20049;-76
2021/01/06 04:07:27;;;;;;;1.35;0.93;;;;;;;18.23;70.18;101953.19;5031570;28;20042;-75
2021/01/06 04:09:52;;;;;;;3.20;0.82;;;;;;;18.26;69.80;101955.84;5031172;28;20371;-75
2021/01/06 04:12:17;;;;;;;3.25;1.10;;;;;;;18.26;69.73;101967.44;5031900;28;20140;-76
2021/01/06 04:14:43;;;;;;;1.13;0.90;;;;;;;18.25;69.86;101965.63;5031555;28;20084;-75
2021/01/06 04:17:08;;;;;;;1.27;0.65;;;;;;;18.28;69.68;101963.00;5014714;28;20068;-76
2021/01/06 04:19:33;;;;;;;0.60;0.60;;;;;;;18.28;69.64;101965.66;5031293;28;20091;-75
2021/01/06 04:21:59;;;;;;;1.20;0.88;;;;;;;18.27;69.48;101966.53;5013910;28;20563;-76
2021/01/06 04:24:24;;;;;;;2.10;0.85;;;;;;;18.26;69.54;101963.84;5014303;28;20072;-76
2021/01/06 04:26:49;;;;;;;0.68;0.60;;;;;;;18.28;69.58;101962.09;5031333;28;20076;-75
2021/01/06 04:29:15;;;;;;;1.70;0.57;;;;;;;18.26;69.33;101962.06;5031959;28;20509;-75
2021/01/06 04:31:40;;;;;;;2.08;0.70;;;;;;;18.27;69.39;101966.53;5030852;28;20406;-77
2021/01/06 04:34:05;;;;;;;0.60;0.60;;;;;;;18.26;69.85;101967.44;5013363;28;20073;-76
2021/01/06 04:36:31;;;;;;;6.30;0.90;;;;;;;18.26;69.32;101954.06;5030867;28;20049;-76
2021/01/06 04:38:56;;;;;;;1.27;0.80;;;;;;;18.25;69.27;101952.28;5013529;28;20034;-76
2021/01/06 04:41:21;;;;;;;4.70;0.70;;;;;;;18.24;69.59;101958.53;5014027;28;20044;-79
2021/01/06 04:43:47;;;;;;;1.00;0.60;;;;;;;18.26;69.34;101954.06;5030616;28;20052;-79
2021/01/06 04:46:12;;;;;;;2.58;0.80;;;;;;;18.27;69.07;101957.63;5013878;28;20112;-79
2021/01/06 04:48:37;;;;;;;0.95;0.63;;;;;;;18.27;69.61;101957.63;5031239;28;20398;-78
2021/01/06 04:51:03;;;;;;;13.15;0.90;;;;;;;18.25;69.30;101957.63;5031427;28;20041;-78
2021/01/06 04:53:28;;;;;;;3.00;0.88;;;;;;;18.30;69.74;101957.66;5014311;28;20033;-76
2021/01/06 04:55:54;;;;;;;2.38;0.60;;;;;;;18.28;69.53;101954.97;5031948;28;20088;-77
2021/01/06 04:58:19;;;;;;;3.80;0.63;;;;;;;18.26;69.17;101958.50;5014208;28;20041;-77
2021/01/06 05:00:46;;;;;;;6.30;0.75;;;;;;;18.24;69.44;101966.56;5030720;28;20145;-78
2021/01/06 05:03:11;;;;;;;31.65;0.65;;;;;;;18.23;69.35;101966.53;5031617;28;20560;-76
2021/01/06 05:05:37;;;;;;;1.35;0.60;;;;;;;18.23;70.05;101967.44;5031279;28;20152;-76
2021/01/06 05:08:02;;;;;;;2.92;0.60;;;;;;;18.23;69.37;101962.09;5013772;28;20414;-75
2021/01/06 05:10:27;;;;;;;0.70;0.60;;;;;;;18.25;69.72;101962.97;5011530;28;20037;-76
2021/01/06 05:12:53;;;;;;;3.03;0.68;;;;;;;18.25;69.40;101951.38;5031347;28;20125;-75
2021/01/06 05:15:18;;;;;;;1.33;0.63;;;;;;;18.25;69.88;101962.97;5013753;28;20441;-75
2021/01/06 05:17:43;;;;;;;3.33;0.70;;;;;;;18.20;69.38;101954.03;5013111;28;20113;-75
2021/01/06 05:20:09;;;;;;;1.05;0.50;;;;;;;18.19;69.35;101959.38;5031110;28;20037;-76
2021/01/06 05:22:34;;;;;;;0.77;0.50;;;;;;;18.21;69.57;101966.53;5013492;28;20038;-76
2021/01/06 05:24:59;;;;;;;4.78;0.52;;;;;;;18.19;69.54;101973.63;5030473;28;20034;-76
2021/01/06 05:27:25;;;;;;;1.35;0.63;;;;;;;18.19;69.40;101962.03;5013593;28;20406;-76
2021/01/06 05:29:50;;;;;;;1.70;0.57;;;;;;;18.19;69.65;101968.28;5012653;28;20049;-77
2021/01/06 05:32:16;;;;;;;1.10;0.57;;;;;;;18.19;69.12;101970.06;5030501;28;20077;-76
2021/01/06 05:34:41;;;;;;;0.43;0.43;;;;;;;18.16;69.29;101979.00;5012922;28;20129;-76
2021/01/06 05:37:08;;;;;;;1.40;0.50;;;;;;;18.17;69.04;101985.22;5014091;28;20446;-76
2021/01/06 05:39:33;;;;;;;0.65;0.50;;;;;;;18.16;69.30;101986.13;5013129;28;20133;-76
2021/01/06 05:41:59;;;;;;;4.68;0.60;;;;;;;18.15;69.48;101981.66;5030180;28;20092;-76
2021/01/06 05:44:24;;;;;;;0.82;0.50;;;;;;;18.19;69.03;101988.78;5030217;28;20042;-78
2021/01/06 05:46:50;;;;;;;4.90;0.60;;;;;;;18.17;69.13;101995.91;5030597;28;20049;-77
2021/01/06 05:49:15;;;;;;;0.73;0.50;;;;;;;18.16;69.08;101995.03;5030654;28;20068;-75
2021/01/06 05:51:40;;;;;;;2.17;0.50;;;;;;;18.18;69.09;101995.91;5030105;28;20037;-77
2021/01/06 05:54:06;;;;;;;1.20;0.57;;;;;;;18.16;69.45;102004.81;5013380;28;20125;-77
2021/01/06 05:56:31;;;;;;;0.90;0.40;;;;;;;18.16;69.39;102000.38;5013357;28;20585;-76
2021/01/06 05:58:56;;;;;;;8.95;0.47;;;;;;;18.13;68.87;101997.66;5013465;28;20469;-75
2021/01/06 06:01:22;;;;;;;7.90;0.50;;;;;;;18.14;69.12;101983.44;5013017;28;20041;-76
2021/01/06 06:03:47;;;;;;;1.95;0.45;;;;;;;18.16;68.73;101986.13;5012421;28;20057;-77
2021/01/06 06:06:12;;;;;;;9.48;0.70;;;;;;;18.16;69.00;101980.78;5030043;28;20034;-75
2021/01/06 06:08:38;;;;;;;4.55;0.60;;;;;;;18.18;69.38;101979.88;5030144;28;20489;-76
2021/01/06 06:11:03;;;;;;;10.13;0.60;;;;;;;18.22;69.22;101988.81;5030126;28;20045;-77
2021/01/06 06:13:28;;;;;;;12.15;0.60;;;;;;;18.23;68.38;101987.94;5030670;28;20132;-80
2021/01/06 06:15:54;;;;;;;17.65;0.90;;;;;;;18.25;68.82;101999.50;5030585;28;20045;-76
2021/01/06 06:18:19;;;;;;;5.38;0.70;;;;;;;18.24;69.47;101998.63;5006028;28;20065;-75
2021/01/06 06:20:44;;;;;;;15.20;0.70;;;;;;;18.24;69.32;101997.75;5011885;28;20045;-75
2021/01/06 06:23:10;;;;;;;12.00;1.30;;;;;;;18.25;69.27;102000.38;4993617;28;20132;-77
2021/01/06 06:25:35;;;;;;;8.00;0.70;;;;;;;18.22;68.93;102003.06;5021466;28;20038;-76
2021/01/06 06:28:01;;;;;;;4.82;0.60;;;;;;;18.21;69.10;102011.97;5001568;28;20038;-76
2021/01/06 06:30:26;;;;;;;7.20;0.80;;;;;;;18.20;68.79;102015.53;5022383;28;20092;-75
2021/01/06 06:32:51;;;;;;;7.57;0.68;;;;;;;18.23;69.23;102010.22;5027887;28;20065;-75
2021/01/06 06:35:17;;;;;;;2.85;0.55;;;;;;;18.25;68.90;102004.84;5033580;28;20046;-76
2021/01/06 06:37:42;;;;;;;4.80;0.65;;;;;;;18.22;68.82;102004.84;5012953;28;20168;-77
2021/01/06 06:40:08;;;;;;;3.78;0.50;;;;;;;18.22;69.11;102012.88;5033211;28;20132;-76
2021/01/06 06:42:33;;;;;;;7.97;0.50;;;;;;;18.21;69.33;102009.31;5032535;28;20509;-76
2021/01/06 06:44:58;;;;;;;6.10;0.50;;;;;;;18.25;68.54;102013.75;5033812;28;20034;-75
2021/01/06 06:47:24;;;;;;;3.10;0.70;;;;;;;18.21;69.22;102006.63;5033578;28;20037;-76
2021/01/06 06:49:49;;;;;;;1.67;0.50;;;;;;;18.24;69.01;102008.44;5032640;28;20075;-76
2021/01/06 06:52:14;;;;;;;2.67;0.60;;;;;;;18.23;68.76;102012.88;5033058;28;20042;-76
2021/01/06 06:54:40;;;;;;;3.00;0.70;;;;;;;18.25;68.26;102021.78;5032382;28;20454;-76
2021/01/06 06:57:05;;;;;;;2.78;0.40;;;;;;;18.22;68.90;102029.81;5015949;28;20080;-75
2021/01/06 06:59:30;;;;;;;4.00;0.50;;;;;;;18.19;68.33;102027.09;5015018;28;20045;-74
2021/01/06 07:01:56;;;;;;;4.55;1.00;;;;;;;18.22;68.77;102021.78;5032502;28;20084;-75
2021/01/06 07:04:21;;;;;;;21.00;0.98;;;;;;;18.47;68.71;102025.44;5032864;28;20045;-76
2021/01/06 07:06:47;;;;;;;22.27;0.95;;;;;;;18.45;68.50;102035.22;5013470;28;20084;-80
2021/01/06 07:09:12;;;;;;;24.13;1.20;;;;;;;18.32;69.14;102036.06;5010912;28;20033;-78
2021/01/06 07:11:37;;;;;;;14.15;0.90;;;;;;;18.23;68.71;102042.28;5024043;28;20121;-76
2021/01/06 07:14:03;;;;;;;35.78;1.15;;;;;;;18.24;69.50;102046.75;5016566;28;20117;-77
2021/01/06 07:16:28;;;;;;;58.25;1.77;;;;;;;18.42;69.67;102045.03;5032645;28;20061;-80
2021/01/06 07:18:54;;;;;;;49.08;1.95;;;;;;;18.38;70.50;102048.59;5033378;28;20504;-78
2021/01/06 07:21:20;;;;;;;41.55;1.60;;;;;;;18.26;70.08;102058.31;5032344;28;20095;-78
2021/01/06 07:23:46;;;;;;;29.20;1.88;;;;;;;18.19;70.83;102059.19;5015171;28;20038;-77
2021/01/06 07:26:11;;;;;;;32.33;1.85;;;;;;;18.15;70.89;102062.72;5033790;28;20075;-80
2021/01/06 07:28:36;;;;;;;22.38;1.23;;;;;;;18.13;70.47;102063.59;5031140;28;20544;-78
2021/01/06 07:31:02;;;;;;;22.98;1.95;;;;;;;18.16;70.59;102051.16;5032859;28;20367;-81
2021/01/06 07:33:33;;;;;;;25.73;1.30;;;;;;;18.12;70.77;102056.47;5011126;28;20041;-75
2021/01/06 07:35:59;;;;;;;12.07;1.48;;;;;;;18.08;71.00;102047.56;5031425;28;20057;-81
2021/01/06 07:38:24;;;;;;;15.63;1.52;;;;;;;18.08;71.35;102052.00;5016432;28;20119;-81
2021/01/06 07:40:49;;;;;;;11.07;1.42;;;;;;;18.05;71.23;102060.88;5033000;28;20125;-79
2021/01/06 07:43:17;;;;;;;11.50;1.35;;;;;;;18.06;71.55;102057.31;5033076;28;20041;-78
2021/01/06 07:45:42;;;;;;;11.05;1.30;;;;;;;18.03;71.53;102060.00;5031977;28;20088;-79
2021/01/06 07:48:07;;;;;;;15.52;1.50;;;;;;;18.03;71.63;102046.63;5015485;28;20049;-79
2021/01/06 07:50:33;;;;;;;11.80;1.33;;;;;;;18.03;71.01;102061.78;5032372;28;20116;-77
2021/01/06 07:52:58;;;;;;;18.30;1.65;;;;;;;18.01;71.63;102064.44;5006200;28;20053;-80
2021/01/06 07:55:23;;;;;;;5.47;1.05;;;;;;;18.01;71.71;102067.09;5033512;28;20525;-82
2021/01/06 07:57:48;;;;;;;10.73;1.08;;;;;;;18.03;70.89;102068.00;5015843;28;20038;-80
2021/01/06 08:00:14;;;;;;;15.23;1.30;;;;;;;18.04;71.06;102069.81;5023921;28;20477;-80
2021/01/06 08:02:46;;;;;;;11.07;1.50;;;;;;;18.03;71.17;102068.00;5022058;28;20037;-81
2021/01/06 08:05:11;;;;;;;13.80;1.65;;;;;;;18.03;70.88;102072.47;5013163;28;20045;-87
2021/01/06 08:07:37;;;;;;;15.07;1.58;;;;;;;18.01;71.00;102083.13;5032054;28;20044;-86
2021/01/06 08:10:02;;;;;;;11.20;1.25;;;;;;;17.98;71.22;102090.25;5015971;28;20045;-82
2021/01/06 08:12:28;;;;;;;11.88;1.00;;;;;;;18.00;70.78;102091.13;5014540;28;20039;-79
2021/01/06 08:14:53;;;;;;;13.63;1.55;;;;;;;17.98;71.32;102091.16;5032342;28;20042;-79
2021/01/06 08:17:19;;;;;;;9.88;1.02;;;;;;;17.93;70.56;102085.75;5014339;28;20042;-76
2021/01/06 08:19:44;;;;;;;21.00;1.60;;;;;;;17.96;70.15;102084.00;5012938;28;20053;-76
2021/01/06 08:22:09;;;;;;;13.20;1.42;;;;;;;18.01;70.34;102077.78;5032042;28;20047;-86
2021/01/06 08:24:35;;;;;;;17.50;1.75;;;;;;;18.01;70.36;102075.13;5012551;28;20065;-77
2021/01/06 08:27:00;;;;;;;24.42;1.70;;;;;;;18.03;70.64;102067.13;5013338;28;20033;-80
2021/01/06 08:29:25;;;;;;;17.63;1.95;;;;;;;18.03;70.78;102076.03;5014555;28;20414;-75
2021/01/06 08:31:51;;;;;;;28.58;1.75;;;;;;;18.05;70.97;102081.41;5013216;28;20038;-79
2021/01/06 08:34:16;;;;;;;13.93;1.50;;;;;;;18.01;70.99;102082.25;5031178;28;20095;-77
2021/01/06 08:36:42;;;;;;;13.40;2.00;;;;;;;18.00;71.10;102081.34;5013244;28;20041;-76
2021/01/06 08:39:07;;;;;;;7.32;2.08;;;;;;;17.98;70.79;102082.25;5030532;28;20045;-78
2021/01/06 08:41:32;;;;;;;9.32;1.98;;;;;;;17.98;70.61;102079.56;5031205;28;20131;-77
2021/01/06 08:44:00;;;;;;;13.40;2.17;;;;;;;17.96;70.60;102067.97;5014476;28;20050;-79
2021/01/06 08:46:25;;;;;;;10.38;2.15;;;;;;;17.96;70.92;102068.88;5032193;28;20120;-79
2021/01/06 08:48:50;;;;;;;10.95;2.22;;;;;;;17.96;70.92;102063.50;5030362;28;20462;-74
2021/01/06 08:51:16;;;;;;;10.73;2.53;;;;;;;17.96;70.88;102066.19;5012218;28;20095;-73
2021/01/06 08:53:41;;;;;;;13.30;2.35;;;;;;;17.96;71.13;102059.94;5028581;28;20033;-77
2021/01/06 08:56:07;;;;;;;22.77;2.95;;;;;;;17.95;70.65;102058.16;5011646;28;20398;-78
2021/01/06 08:58:32;;;;;;;8.70;2.67;;;;;;;17.96;70.55;102066.19;5029331;28;20086;-76
2021/01/06 09:00:57;;;;;;;8.35;2.13;;;;;;;17.94;70.73;102051.91;5030459;28;20050;-75
2021/01/06 09:03:23;;;;;;;7.65;3.10;;;;;;;17.92;70.57;102059.91;5031440;28;20445;-76
2021/01/06 09:05:48;;;;;;;10.10;2.75;;;;;;;17.94;70.63;102065.28;5030925;28;20046;-79
2021/01/06 09:08:13;;;;;;;14.98;2.85;;;;;;;17.94;70.53;102073.28;5013921;28;20489;-77
2021/01/06 09:10:39;;;;;;;15.85;3.22;;;;;;;17.94;70.93;102057.25;5013516;28;20037;-77
2021/01/06 09:13:04;;;;;;;18.05;3.45;;;;;;;17.94;70.92;102057.25;5014349;28;20038;-77
2021/01/06 09:15:30;;;;;;;13.30;3.05;;;;;;;17.93;70.38;102051.00;5013427;28;20077;-83
2021/01/06 09:17:55;;;;;;;11.25;3.75;;;;;;;17.95;70.30;102050.13;5014370;28;20048;-83
2021/01/06 09:20:20;;;;;;;14.13;4.00;;;;;;;17.93;70.66;102040.31;5014278;28;20131;-80
2021/01/06 09:22:46;;;;;;;16.85;3.90;;;;;;;17.88;69.75;102030.50;5030861;28;20041;-79
2021/01/06 09:25:11;;;;;;;22.70;4.53;;;;;;;17.86;68.25;102037.59;5030853;28;20417;-78
2021/01/06 09:27:39;;;;;;;11.63;3.05;;;;;;;17.84;67.96;102026.03;5022197;28;20045;-78
2021/01/06 09:30:04;;;;;;;12.30;3.00;;;;;;;17.82;66.73;102028.69;5020539;28;20033;-78
2021/01/06 09:32:29;;;;;;;13.98;2.70;;;;;;;17.82;66.64;102022.44;5031354;28;20402;-79
2021/01/06 09:34:55;;;;;;;14.90;2.78;;;;;;;17.82;66.56;102003.75;5031719;28;20030;-79
2021/01/06 09:37:20;;;;;;;12.68;2.75;;;;;;;17.83;66.39;101995.75;5014116;28;20041;-79
2021/01/06 09:39:45;;;;;;;20.23;3.13;;;;;;;17.87;66.05;102004.66;5012651;28;20046;-79
2021/01/06 09:42:11;;;;;;;31.13;4.18;;;;;;;17.88;66.29;101995.78;5030408;28;20379;-79
2021/01/06 09:44:36;;;;;;;41.15;4.15;;;;;;;17.89;66.38;101994.88;5013103;28;20046;-78
2021/01/06 09:47:01;;;;;;;30.13;3.00;;;;;;;17.87;66.49;101993.97;5012924;28;20060;-76
2021/01/06 09:49:27;;;;;;;18.58;3.47;;;;;;;17.88;66.60;101991.31;5011392;28;20045;-79
2021/01/06 09:51:53;;;;;;;31.83;3.03;;;;;;;17.89;67.14;101992.22;5012931;28;20041;-81
2021/01/06 09:54:18;;;;;;;14.40;3.40;;;;;;;17.89;67.72;101981.53;5012931;28;20042;-78
2021/01/06 09:56:43;;;;;;;26.60;3.75;;;;;;;17.89;67.89;101984.19;5029723;28;20041;-76
2021/01/06 09:59:09;;;;;;;16.60;2.85;;;;;;;17.89;67.85;101979.75;5030565;28;20386;-79
2021/01/06 10:01:34;;;;;;;40.60;3.03;;;;;;;17.88;67.88;101972.63;5024944;28;20044;-78
2021/01/06 10:03:59;;;;;;;15.77;2.30;;;;;;;17.91;68.09;101963.75;5012946;28;20100;-79
2021/01/06 10:06:25;;;;;;;9.07;2.22;;;;;;;17.90;68.70;101957.50;5031030;28;20030;-79
2021/01/06 10:08:51;;;;;;;15.32;2.95;;;;;;;17.90;68.36;101945.91;5032057;28;20528;-79
2021/01/06 10:11:17;;;;;;;11.70;3.00;;;;;;;17.90;69.21;101948.59;5034550;28;20044;-79
2021/01/06 10:13:42;;;;;;;13.68;2.75;;;;;;;17.90;68.66;101932.56;5033844;28;20034;-79
2021/01/06 10:16:08;;;;;;;12.35;2.38;;;;;;;17.90;69.22;101922.75;5034329;28;20048;-77
2021/01/06 10:18:33;;;;;;;12.90;2.55;;;;;;;17.90;68.81;101921.88;5034253;28;20049;-78
2021/01/06 10:20:58;;;;;;;8.63;1.92;;;;;;;17.89;68.75;101914.72;5016956;28;20072;-78
2021/01/06 10:23:24;;;;;;;11.63;2.53;;;;;;;17.89;68.79;101904.03;5016766;28;20056;-82
2021/01/06 10:25:49;;;;;;;8.25;1.90;;;;;;;17.90;68.96;101900.50;5034822;28;20045;-82
2021/01/06 10:28:14;;;;;;;8.48;1.90;;;;;;;17.90;69.19;101906.72;5017229;28;20124;-83
2021/01/06 10:30:40;;;;;;;7.70;2.00;;;;;;;17.91;69.20;101902.28;5031569;28;20092;-82
2021/01/06 10:33:05;;;;;;;8.20;1.70;;;;;;;17.91;68.44;101913.88;5004383;28;20041;-78
2021/01/06 10:35:31;;;;;;;12.05;2.13;;;;;;;17.90;68.69;101892.47;5013745;28;20164;-77
2021/01/06 10:37:56;;;;;;;6.78;2.10;;;;;;;17.89;69.25;101885.34;5017269;28;20119;-81
2021/01/06 10:40:25;;;;;;;8.18;1.50;;;;;;;17.89;69.02;101888.91;5015970;28;20060;-78
2021/01/06 10:42:51;;;;;;;7.28;2.00;;;;;;;17.90;69.10;101881.78;5015155;28;20045;-78
2021/01/06 10:45:16;;;;;;;13.45;1.50;;;;;;;17.84;69.21;101881.78;5014615;28;20030;-74
2021/01/06 10:47:42;;;;;;;4.80;1.40;;;;;;;17.79;68.90;101884.41;5013774;28;20076;-78
2021/01/06 10:50:07;;;;;;;7.10;1.48;;;;;;;17.79;69.32;101887.06;5015168;28;20113;-78
2021/01/06 10:52:33;;;;;;;14.18;1.40;;;;;;;17.77;68.88;101898.66;5014140;28;20047;-80
2021/01/06 10:54:58;;;;;;;6.65;1.05;;;;;;;17.76;68.71;101881.75;5015525;28;20441;-78
2021/01/06 10:57:24;;;;;;;6.80;1.90;;;;;;;17.75;69.60;101884.41;5031247;28;20048;-76
2021/01/06 10:59:49;;;;;;;6.53;2.20;;;;;;;17.73;69.10;101887.06;5031702;28;20406;-74
2021/01/06 11:02:15;;;;;;;10.25;3.15;;;;;;;17.69;68.76;101890.59;5015718;28;20172;-79
2021/01/06 11:04:40;;;;;;;11.68;4.25;;;;;;;17.69;68.80;101884.38;5015847;28;20072;-77
2021/01/06 11:07:05;;;;;;;11.00;6.78;;;;;;;17.68;68.41;101885.25;5015713;28;20497;-77
2021/01/06 11:09:31;;;;;;;12.60;6.80;;;;;;;17.68;67.85;101882.59;5016391;28;20045;-78
2021/01/06 11:11:56;;;;;;;18.40;6.60;;;;;;;17.69;67.51;101879.94;5016542;28;20037;-78